ADDS METAR Data INFO
IDs: Format: Raw Decoded Include TAF

Data at: 2041 UTC 20 Jul 2018

KJYG 202035Z AUTO 32008KT 10SM SCT036 26/18 A2991 RMK AO2
KJYG 202015Z AUTO 33009G14KT 10SM CLR 26/19 A2991 RMK AO2
KJYG 201955Z AUTO 31011G14KT 10SM CLR 25/18 A2991 RMK AO2
KJYG 201935Z AUTO 34011KT 10SM SCT033 24/18 A2990 RMK AO2
KJYG 201915Z AUTO 32009KT 10SM SCT029 24/18 A2991 RMK AO2
KJYG 201855Z AUTO 31008G16KT 10SM SCT029 24/18 A2991 RMK AO2
KJYG 201835Z AUTO 31011G16KT 10SM SCT027 24/18 A2990 RMK AO2
KJYG 201815Z AUTO 31009KT 10SM SCT023 24/18 A2990 RMK AO2
KJYG 201755Z AUTO 32009KT 10SM SCT021 23/18 A2991 RMK AO2
KJYG 201735Z AUTO 31011KT 10SM SCT021 23/18 A2991 RMK AO2
KJYG 201715Z AUTO 34010KT 10SM SCT017 SCT060 22/18 A2991 RMK AO2
KJYG 201655Z AUTO 35010KT 10SM SCT015 SCT060 22/18 A2991 RMK AO2
KJYG 201635Z AUTO 35012G17KT 10SM SCT048 SCT060 21/18 A2991 RMK AO2
KJYG 201615Z AUTO 33011G18KT 10SM SCT010 SCT015 BKN048 20/18 A2991 RMK AO2
KJYG 201555Z AUTO 33010G15KT 10SM BKN012 19/18 A2990 RMK AO2 LTG DSNT SW
KJYG 201535Z AUTO 32012G17KT 7SM BKN010 OVC016 19/18 A2990 RMK AO2
KJYG 201515Z AUTO 32013KT 5SM BR BKN010 OVC017 18/18 A2990 RMK AO2
KJYG 201455Z AUTO 32012KT 10SM BKN008 OVC013 18/17 A2990 RMK AO2 P0001
KJYG 201435Z AUTO 32011KT 10SM OVC008 18/18 A2989 RMK AO2 P0001
KJYG 201415Z AUTO 32010G16KT 7SM -RA BKN006 OVC011 18/17 A2988 RMK AO2 P0001
KJYG 201355Z AUTO 31011G17KT 5SM RA BKN006 OVC010 18/17 A2988 RMK AO2 P0004
KJYG 201336Z AUTO 31012KT 3SM DZ BKN006 BKN014 OVC022 18/18 A2987 RMK AO2 P0002
KJYG 201315Z AUTO 31012KT 3SM RA BKN008 BKN015 OVC022 18/17 A2986 RMK AO2 P0001
KJYG 201255Z AUTO 30010G16KT 10SM -RA OVC008 18/17 A2986 RMK AO2
KJYG 201235Z AUTO 30009G15KT 7SM -RA OVC008 18/17 A2985 RMK AO2
KJYG 201215Z AUTO 30008KT 10SM -RA OVC008 18/17 A2984 RMK AO2
KJYG 201155Z AUTO 31011KT 10SM OVC008 18/17 A2983 RMK AO2
KJYG 201135Z AUTO 31010KT 10SM BKN008 OVC011 17/17 A2982 RMK AO2
KJYG 201115Z AUTO 31012G16KT 10SM -RA OVC008 17/17 A2981 RMK AO2
KJYG 201055Z AUTO 31010G15KT 10SM -DZ OVC008 17/17 A2981 RMK AO2 P0001
KJYG 201035Z AUTO 30011KT 10SM DZ BKN010 BKN014 OVC021 17/17 A2981 RMK AO2 P0001
KJYG 201015Z AUTO 31011G15KT 7SM -RA BKN011 OVC021 17/17 A2980 RMK AO2
KJYG 200955Z AUTO 30011G16KT 7SM -RA OVC011 17/17 A2979 RMK AO2
KJYG 200935Z AUTO 30012G15KT 10SM OVC011 17/17 A2979 RMK AO2
KJYG 200915Z AUTO 31010G16KT 10SM BKN008 OVC013 17/17 A2978 RMK AO2
KJYG 200855Z AUTO 33013G18KT 10SM BKN008 OVC013 17/17 A2977 RMK AO2
KJYG 200835Z AUTO 34013KT 10SM SCT008 OVC014 17/17 A2976 RMK AO2
KJYG 200815Z AUTO 33013KT 10SM SCT007 BKN012 OVC016 17/17 A2976 RMK AO2
KJYG 200755Z AUTO 33014G19KT 7SM BKN005 OVC012 18/17 A2975 RMK AO2 P0001
KJYG 200735Z AUTO 32010KT 4SM +DZ OVC005 18/17 A2974 RMK AO2 P0001
KJYG 200715Z AUTO 32011G16KT 4SM -RA OVC005 18/17 A2974 RMK AO2
KJYG 200655Z AUTO 33013G18KT 10SM -RA OVC005 18/17 A2974 RMK AO2
KJYG 200635Z AUTO 32013G17KT 5SM -RA OVC005 18/18 A2973 RMK AO2
KJYG 200615Z AUTO 33012KT 7SM -RA OVC005 18/18 A2972 RMK AO2
KJYG 200555Z AUTO 34013G19KT 10SM -RA OVC005 19/18 A2971 RMK AO2 P0003
KJYG 200535Z AUTO 33013KT 10SM -RA OVC005 19/19 A2969 RMK AO2 P0002
KJYG 200515Z AUTO 31007KT 10SM RA BKN008 OVC015 19/19 A2968 RMK AO2
KJYG 200455Z AUTO 30004KT 10SM OVC015 19/19 A2967 RMK AO2
KJYG 200435Z AUTO 29003KT 10SM BKN017 OVC022 19/19 A2967 RMK AO2
KJYG 200415Z AUTO 26004KT 5SM DZ SCT011 BKN024 OVC030 19/19 A2966 RMK AO2
KJYG 200355Z AUTO 26005KT 10SM SCT013 OVC018 20/19 A2967 RMK AO2
KJYG 200335Z AUTO 28005KT 10SM SCT013 BKN024 OVC055 19/18 A2967 RMK AO2
KJYG 200315Z AUTO 26007KT 10SM SCT018 BKN055 19/18 A2967 RMK AO2
KJYG 200256Z AUTO 26009KT 10SM SCT048 SCT075 20/18 A2966 RMK AO2
KJYG 200235Z AUTO 27014KT 10SM SCT016 BKN028 OVC070 21/18 A2966 RMK AO2
KJYG 200215Z AUTO 27011KT 10SM SCT014 BKN019 OVC060 21/19 A2966 RMK AO2
KJYG 200155Z AUTO 27007KT 10SM SCT033 BKN060 21/19 A2966 RMK AO2
KJYG 200135Z AUTO 27006KT 10SM CLR 21/19 A2966 RMK AO2
KJYG 200115Z AUTO 27009KT 10SM CLR 21/19 A2965 RMK AO2
KJYG 200055Z AUTO 29006KT 10SM SCT014 21/19 A2965 RMK AO2
KJYG 200035Z AUTO 29009KT 10SM SCT018 22/19 A2966 RMK AO2
KJYG 200015Z AUTO 30008KT 10SM CLR 22/19 A2965 RMK AO2
KJYG 192355Z AUTO 31006KT 10SM CLR 23/19 A2965 RMK AO2
KJYG 192335Z AUTO 32006KT 10SM SCT035 SCT049 23/20 A2966 RMK AO2
KJYG 192315Z AUTO 30004KT 10SM SCT020 SCT047 SCT060 23/20 A2966 RMK AO2
KJYG 192255Z AUTO 31005KT 10SM SCT020 SCT034 BKN048 24/20 A2966 RMK AO2
KJYG 192235Z AUTO 25007KT 10SM SCT020 SCT027 BKN044 24/19 A2966 RMK AO2
KJYG 192215Z AUTO 24008KT 10SM SCT018 SCT025 24/20 A2967 RMK AO2
KJYG 192155Z AUTO 27006KT 10SM -RA CLR 24/21 A2967 RMK AO2
KJYG 192135Z AUTO 23005KT 10SM -RA CLR 22/19 A2967 RMK AO2
KJYG 192115Z AUTO 22006KT 10SM -RA SCT014 SCT065 21/19 A2968 RMK AO2
KJYG 192055Z AUTO 20007KT 10SM SCT016 22/20 A2967 RMK AO2
KJYG 192035Z AUTO 17005KT 10SM SCT025 SCT039 21/20 A2968 RMK AO2
KJYG 192015Z AUTO 16006KT 10SM SCT025 SCT040 SCT060 21/19 A2968 RMK AO2 LTG DSNT E
KJYG 191955Z AUTO 13007KT 10SM SCT017 SCT041 BKN060 20/19 A2969 RMK AO2 LTG DSNT W AND NW P0001
KJYG 191935Z AUTO 14006KT 10SM -RA BKN019 19/18 A2970 RMK AO2 P0001
KJYG 191915Z AUTO 15007KT 10SM -VCTSRA BKN019 OVC026 19/18 A2970 RMK AO2 LTG DSNT E SE AND NW
KJYG 191855Z AUTO 12004KT 10SM TSDZ SCT021 BKN026 21/19 A2971 RMK AO2 LTG DSNT NW THRU E P0027
KJYG 191835Z AUTO 17006KT 10SM -RA SCT014 BKN026 BKN033 20/18 A2972 RMK AO2 LTG DSNT N SE AND NW P0026
KJYG 191815Z AUTO 17009G14KT 3SM +RA SCT002 OVC013 21/19 A2973 RMK AO2 LTG DSNT ALQDS P0020
KJYG 191755Z AUTO 13017G22KT 7SM RA SCT002 OVC011 21/19 A2970 RMK AO2 LTG DSNT SW THRU NW P0002
KJYG 191735Z AUTO 12015G19KT 10SM OVC009 21/19 A2970 RMK AO2 LTG DSNT NW
KJYG 191715Z AUTO 12012G19KT 10SM OVC009 21/19 A2971 RMK AO2 LTG DSNT SW
KJYG 191655Z AUTO 12012G17KT 10SM OVC009 21/19 A2972 RMK AO2 LTG DSNT W
KJYG 191635Z AUTO 12014G19KT 10SM OVC007 21/19 A2973 RMK AO2 LTG DSNT NW
KJYG 191615Z AUTO 12012G20KT 10SM OVC007 20/19 A2973 RMK AO2
KJYG 191555Z AUTO 13012G20KT 10SM OVC007 20/19 A2974 RMK AO2
KJYG 191535Z AUTO 12013G17KT 10SM OVC009 20/19 A2975 RMK AO2
KJYG 191515Z AUTO 13012G17KT 10SM BKN009 BKN014 20/19 A2976 RMK AO2 LTG DSNT E
KJYG 191455Z AUTO 13011KT 10SM -RA BKN007 OVC019 19/19 A2977 RMK AO2 LTG DSNT E P0028
KJYG 191435Z AUTO 13013G22KT 10SM RA SCT009 BKN020 OVC026 19/19 A2978 RMK AO2 P0027
KJYG 191415Z AUTO 13015G21KT 7SM -TSRA SCT002 BKN008 OVC039 20/19 A2977 RMK AO2 LTG DSNT ALQDS P0025
KJYG 191355Z AUTO 13012G17KT 7SM +TSRA OVC008 21/19 A2977 RMK AO2 LTG DSNT SE S AND NW P0004
KJYG 191335Z AUTO 11016G22KT 10SM VCTS OVC010 21/19 A2977 RMK AO2 LTG DSNT ALQDS
KJYG 191315Z AUTO 12015G20KT 10SM OVC012 21/19 A2978 RMK AO2 LTG DSNT ALQDS
KJYG 191255Z AUTO 13015KT 10SM OVC014 21/19 A2980 RMK AO2 LTG DSNT ALQDS
KJYG 191235Z AUTO 13011G19KT 10SM OVC016 21/19 A2980 RMK AO2 LTG DSNT ALQDS
KJYG 191215Z AUTO 13010G16KT 10SM TS OVC016 21/19 A2980 RMK AO2 LTG DSNT ALQDS
KJYG 191155Z AUTO 13011G17KT 10SM VCTS BKN018 OVC024 21/19 A2980 RMK AO2 LTG DSNT N THRU SE P0008
KJYG 191135Z AUTO 13012G17KT 10SM VCTS SCT011 BKN025 OVC031 21/19 A2980 RMK AO2 LTG DSNT ALQDS P0008
KJYG 191115Z AUTO 13009KT 7SM -RA SCT013 BKN035 20/19 A2981 RMK AO2 LTG DSNT SE W AND NW P0008
KJYG 191055Z AUTO 12007KT 10SM VCTS OVC037 21/19 A2982 RMK AO2 LTG DSNT ALQDS P0006
KJYG 191035Z AUTO 12008KT 10SM VCTS BKN037 OVC049 21/19 A2983 RMK AO2 LTG DSNT NE THRU SE P0003
KJYG 191016Z AUTO 12008KT 10SM -VCTSRA SCT005 BKN049 OVC065 21/19 A2983 RMK AO2 LTG DSNT SE P0003
KJYG 190955Z AUTO 13009KT 10SM -RA SCT033 BKN049 OVC080 21/19 A2984 RMK AO2 P0001
KJYG 190935Z AUTO 13010KT 10SM DZ SCT060 BKN070 OVC085 21/18 A2985 RMK AO2 LTG DSNT SE W AND NW
KJYG 190915Z AUTO 13009KT 10SM -RA SCT050 BKN060 BKN075 21/18 A2986 RMK AO2 LTG DSNT W
KJYG 190855Z AUTO 13007KT 10SM SCT080 120 21/18 A2985 RMK AO2